createdAt,value
2019-06-20T00:02:08.878Z,20.70
2019-06-20T00:04:38.730Z,20.70
2019-06-20T00:07:08.632Z,20.70
2019-06-20T00:09:38.523Z,20.70
2019-06-20T00:12:08.345Z,20.60
2019-06-20T00:14:38.193Z,20.60
2019-06-20T00:17:07.936Z,20.60
2019-06-20T00:19:38.811Z,20.60
2019-06-20T00:22:08.656Z,20.50
2019-06-20T00:24:38.527Z,20.50
2019-06-20T00:27:08.401Z,20.50
2019-06-20T00:29:38.214Z,20.50
2019-06-20T00:32:09.129Z,20.50
2019-06-20T00:34:38.938Z,20.50
2019-06-20T00:37:08.887Z,20.50
2019-06-20T00:39:38.625Z,20.40
2019-06-20T00:42:08.475Z,20.40
2019-06-20T00:44:38.300Z,20.40
2019-06-20T00:47:08.453Z,20.40
2019-06-20T00:49:38.216Z,20.40
2019-06-20T00:52:08.142Z,20.40
2019-06-20T00:54:37.953Z,20.40
2019-06-20T00:57:07.835Z,20.40
2019-06-20T00:59:37.760Z,20.40
2019-06-20T01:02:07.601Z,20.40
2019-06-20T01:04:37.205Z,20.40
2019-06-20T01:07:07.128Z,20.40
2019-06-20T01:09:36.742Z,20.40
2019-06-20T01:12:06.671Z,20.40
2019-06-20T01:14:36.490Z,20.40
2019-06-20T01:17:06.387Z,20.50
2019-06-20T01:19:36.317Z,20.50
2019-06-20T01:22:06.197Z,20.40
2019-06-20T01:24:35.943Z,20.40
2019-06-20T01:27:05.740Z,20.40
2019-06-20T01:29:35.488Z,20.40
2019-06-20T01:32:05.348Z,20.40
2019-06-20T01:34:35.204Z,20.40
2019-06-20T01:37:05.124Z,20.40
2019-06-20T01:39:34.868Z,20.40
2019-06-20T01:42:04.768Z,20.40
2019-06-20T01:44:34.560Z,20.40
2019-06-20T01:47:04.573Z,20.40
2019-06-20T01:49:34.456Z,20.40
2019-06-20T01:52:04.229Z,20.40
2019-06-20T01:54:34.100Z,20.30
2019-06-20T01:57:03.808Z,20.30
2019-06-20T01:59:33.629Z,20.30
2019-06-20T02:02:03.640Z,20.30
2019-06-20T02:04:34.645Z,20.30
2019-06-20T02:07:04.631Z,20.30
2019-06-20T02:09:34.423Z,20.30
2019-06-20T02:12:04.752Z,20.30
2019-06-20T02:14:34.530Z,20.20
2019-06-20T02:17:04.558Z,20.20
2019-06-20T02:19:34.360Z,20.20
2019-06-20T02:22:04.375Z,20.20
2019-06-20T02:24:34.145Z,20.20
2019-06-20T02:27:04.013Z,20.20
2019-06-20T02:29:33.897Z,20.20
2019-06-20T02:32:03.780Z,20.20
2019-06-20T02:34:33.504Z,20.20
2019-06-20T02:37:03.252Z,20.20
2019-06-20T02:39:32.881Z,20.20
2019-06-20T02:42:02.774Z,20.20
2019-06-20T02:44:32.566Z,20.20
2019-06-20T02:47:03.575Z,20.20
2019-06-20T02:49:33.683Z,20.20
2019-06-20T02:52:05.533Z,20.30
2019-06-20T02:54:34.530Z,20.30
2019-06-20T02:57:04.304Z,20.30
2019-06-20T02:59:33.997Z,20.30
2019-06-20T03:02:03.853Z,20.30
2019-06-20T03:04:33.628Z,20.40
2019-06-20T03:07:04.683Z,20.40
2019-06-20T03:09:34.474Z,20.50
2019-06-20T03:12:04.650Z,20.50
2019-06-20T03:14:44.908Z,20.50
2019-06-20T03:17:05.780Z,20.60
2019-06-20T03:19:35.565Z,20.60
2019-06-20T03:22:05.454Z,20.60
2019-06-20T03:24:35.342Z,20.70
2019-06-20T03:27:05.216Z,20.70
2019-06-20T03:29:35.010Z,20.80
2019-06-20T03:32:04.931Z,20.80
2019-06-20T03:34:34.735Z,20.80
2019-06-20T03:37:04.630Z,20.90
2019-06-20T03:39:34.540Z,20.90
2019-06-20T03:42:05.368Z,21.00
2019-06-20T03:44:35.183Z,21.00
2019-06-20T03:47:04.989Z,21.10
2019-06-20T03:49:34.851Z,21.10
2019-06-20T03:52:04.724Z,21.20
2019-06-20T03:54:34.381Z,21.30
2019-06-20T03:57:04.365Z,21.30
2019-06-20T03:59:34.191Z,21.30
2019-06-20T04:02:04.036Z,21.40
2019-06-20T04:04:33.787Z,21.40
2019-06-20T04:07:03.551Z,21.50
2019-06-20T04:09:33.624Z,21.50
2019-06-20T04:12:03.514Z,21.60
2019-06-20T04:14:33.429Z,21.60
2019-06-20T04:17:03.085Z,21.70
2019-06-20T04:19:32.860Z,21.80
2019-06-20T04:22:02.713Z,21.80
2019-06-20T04:24:32.664Z,21.90
2019-06-20T04:27:02.472Z,22.00
2019-06-20T04:29:35.768Z,22.00
2019-06-20T04:32:03.810Z,22.10
2019-06-20T04:34:33.593Z,22.10
2019-06-20T04:37:03.370Z,22.20
2019-06-20T04:39:34.108Z,22.30
2019-06-20T04:42:03.924Z,22.30
2019-06-20T04:44:33.711Z,22.30
2019-06-20T04:47:05.094Z,22.30
2019-06-20T04:49:35.072Z,22.30
2019-06-20T04:52:04.913Z,22.40
2019-06-20T04:54:34.813Z,22.40
2019-06-20T04:57:04.761Z,22.50
2019-06-20T04:59:34.679Z,22.50
2019-06-20T05:02:04.669Z,22.50
2019-06-20T05:04:34.457Z,22.30
2019-06-20T05:07:07.154Z,22.20
2019-06-20T05:09:37.047Z,22.20
2019-06-20T05:12:06.938Z,22.10
2019-06-20T05:14:36.731Z,22.10
2019-06-20T05:17:07.335Z,22.10
2019-06-20T05:19:37.344Z,22.20
2019-06-20T05:22:07.192Z,22.20
2019-06-20T05:24:36.990Z,22.30
2019-06-20T05:27:06.785Z,22.30
2019-06-20T05:29:36.638Z,22.30
2019-06-20T05:32:06.664Z,22.50
2019-06-20T05:34:36.630Z,22.50
2019-06-20T05:37:06.537Z,22.60
2019-06-20T05:39:36.366Z,22.70
2019-06-20T05:42:06.266Z,22.70
2019-06-20T05:44:36.039Z,22.80
2019-06-20T05:47:12.382Z,22.80
2019-06-20T05:49:37.164Z,22.90
2019-06-20T05:52:07.088Z,23.00
2019-06-20T05:54:37.080Z,23.00
2019-06-20T05:57:07.918Z,23.10
2019-06-20T05:59:38.116Z,23.10
2019-06-20T06:02:08.076Z,23.10
2019-06-20T06:04:37.894Z,23.20
2019-06-20T06:07:07.872Z,23.20
2019-06-20T06:09:37.842Z,23.30
2019-06-20T06:12:07.710Z,23.30
2019-06-20T06:14:37.714Z,23.40
2019-06-20T06:17:07.574Z,23.50
2019-06-20T06:19:37.283Z,23.70
2019-06-20T06:22:07.163Z,23.70
2019-06-20T06:24:37.027Z,23.80
2019-06-20T06:27:06.889Z,23.80
2019-06-20T06:29:36.688Z,23.80
2019-06-20T06:32:06.659Z,23.80
2019-06-20T06:34:36.577Z,23.80
2019-06-20T06:37:06.480Z,23.90
2019-06-20T06:39:36.426Z,23.80
2019-06-20T06:42:06.368Z,23.80
2019-06-20T06:44:36.118Z,23.90
2019-06-20T06:47:05.790Z,23.90
2019-06-20T06:49:35.674Z,24.00
2019-06-20T06:52:05.612Z,24.10
2019-06-20T06:54:35.531Z,24.10
2019-06-20T06:57:05.522Z,24.20
2019-06-20T06:59:35.336Z,24.20
2019-06-20T07:02:04.958Z,24.30
2019-06-20T07:04:34.918Z,24.40
2019-06-20T07:07:04.789Z,24.50
2019-06-20T07:09:35.467Z,24.60
2019-06-20T07:12:05.387Z,24.60
2019-06-20T07:14:35.349Z,24.70
2019-06-20T07:17:05.355Z,24.80
2019-06-20T07:19:35.183Z,24.90
2019-06-20T07:22:05.081Z,25.00
2019-06-20T07:24:34.922Z,25.10
2019-06-20T07:27:04.814Z,25.20
2019-06-20T07:29:34.774Z,25.30
2019-06-20T07:32:04.803Z,25.50
2019-06-20T07:34:34.579Z,25.60
2019-06-20T07:37:06.877Z,25.80
2019-06-20T07:39:37.742Z,26.00
2019-06-20T07:42:07.690Z,26.20
2019-06-20T07:44:37.580Z,26.40
2019-06-20T07:47:16.958Z,26.60
2019-06-20T07:49:38.832Z,26.70
2019-06-20T07:52:08.762Z,26.80
2019-06-20T07:54:38.575Z,26.80
2019-06-20T07:57:08.440Z,27.00
2019-06-20T07:59:38.283Z,27.00
2019-06-20T08:02:08.627Z,27.00
2019-06-20T08:04:38.457Z,27.20
2019-06-20T08:07:08.380Z,27.30
2019-06-20T08:09:44.834Z,27.50
2019-06-20T08:12:09.761Z,27.80
2019-06-20T08:14:39.578Z,28.10
2019-06-20T08:17:09.512Z,28.30
2019-06-20T08:19:39.354Z,28.70
2019-06-20T08:22:09.373Z,29.00
2019-06-20T08:24:39.286Z,29.20
2019-06-20T08:27:14.775Z,29.20
2019-06-20T08:29:43.481Z,29.30
2019-06-20T08:32:13.242Z,29.50
2019-06-20T08:34:43.094Z,29.80
2019-06-20T08:37:12.864Z,30.00
2019-06-20T08:39:42.740Z,30.10
2019-06-20T08:42:12.531Z,30.20
2019-06-20T08:44:42.295Z,30.30
2019-06-20T08:47:12.907Z,30.30
2019-06-20T08:49:42.819Z,30.40
2019-06-20T08:52:12.668Z,30.60
2019-06-20T08:54:42.402Z,30.70
2019-06-20T08:57:12.142Z,30.90
2019-06-20T08:59:42.052Z,31.00
2019-06-20T09:02:12.662Z,31.10
2019-06-20T09:04:42.777Z,31.20
2019-06-20T09:07:17.459Z,31.20
2019-06-20T09:09:47.503Z,31.30
2019-06-20T09:12:17.168Z,31.20
2019-06-20T09:14:47.107Z,31.10
2019-06-20T09:17:21.763Z,31.00
2019-06-20T09:19:54.332Z,30.80
2019-06-20T09:22:24.269Z,30.70
2019-06-20T09:24:55.122Z,30.60
2019-06-20T09:27:25.791Z,30.70
2019-06-20T09:29:56.257Z,30.80
2019-06-20T09:32:26.174Z,30.90
2019-06-20T09:34:56.570Z,30.90
2019-06-20T09:37:26.659Z,30.90
2019-06-20T09:39:57.192Z,30.70
2019-06-20T09:42:28.336Z,30.50
2019-06-20T09:44:58.476Z,30.50
2019-06-20T09:47:28.610Z,30.30
2019-06-20T09:49:59.032Z,30.20
2019-06-20T09:52:28.893Z,30.20
2019-06-20T09:54:58.632Z,30.20
2019-06-20T09:57:28.450Z,30.10
2019-06-20T10:00:07.702Z,30.20
2019-06-20T10:02:28.906Z,30.20
2019-06-20T10:04:58.641Z,30.20
2019-06-20T10:07:28.543Z,30.10
2019-06-20T10:09:58.257Z,30.10
2019-06-20T10:12:28.137Z,30.10
2019-06-20T10:14:57.965Z,30.10
2019-06-20T10:17:27.790Z,30.20
2019-06-20T10:19:57.675Z,30.20
2019-06-20T10:22:27.580Z,30.20
2019-06-20T10:24:57.946Z,30.30
2019-06-20T10:27:27.933Z,30.30
2019-06-20T10:30:10.665Z,30.40
2019-06-20T10:32:29.203Z,30.40
2019-06-20T10:34:58.960Z,30.40
2019-06-20T10:37:28.835Z,30.20
2019-06-20T10:39:58.689Z,30.10
2019-06-20T10:42:28.676Z,30.10
2019-06-20T10:44:58.394Z,30.00
2019-06-20T10:47:35.099Z,30.00
2019-06-20T10:50:00.736Z,29.90
2019-06-20T10:52:30.530Z,29.80
2019-06-20T10:55:00.263Z,29.60
2019-06-20T10:57:30.186Z,29.60
2019-06-20T10:59:59.907Z,29.50
2019-06-20T11:02:34.462Z,29.40
2019-06-20T11:05:06.635Z,29.40
2019-06-20T11:07:38.908Z,29.40
2019-06-20T11:10:14.130Z,29.40
2019-06-20T11:12:50.774Z,29.40
2019-06-20T11:15:16.657Z,29.40
2019-06-20T11:17:46.529Z,29.30
2019-06-20T11:20:16.878Z,29.40
2019-06-20T11:22:47.775Z,29.40
2019-06-20T11:25:19.696Z,29.40
2019-06-20T11:27:49.642Z,29.50
2019-06-20T11:30:22.267Z,29.40
2019-06-20T11:32:52.108Z,29.40
2019-06-20T11:35:21.902Z,29.40
2019-06-20T11:37:51.716Z,29.30
2019-06-20T11:40:22.113Z,29.40
2019-06-20T11:42:51.958Z,29.30
2019-06-20T11:45:22.256Z,29.20
2019-06-20T11:47:52.174Z,29.20
2019-06-20T11:50:22.562Z,29.20
2019-06-20T11:52:52.426Z,29.30
2019-06-20T11:55:22.604Z,29.40
2019-06-20T11:57:52.465Z,29.40
2019-06-20T12:00:22.711Z,29.40
2019-06-20T12:02:52.318Z,29.40
2019-06-20T12:05:22.352Z,29.40
2019-06-20T12:07:52.258Z,29.40
2019-06-20T12:10:22.671Z,29.30
2019-06-20T12:12:52.536Z,29.30
2019-06-20T12:15:23.223Z,29.40
2019-06-20T12:17:53.336Z,29.40
2019-06-20T12:20:23.549Z,29.40
2019-06-20T12:22:53.440Z,29.40
2019-06-20T12:25:23.367Z,29.40
2019-06-20T12:27:53.329Z,29.40
2019-06-20T12:30:23.491Z,29.30
2019-06-20T12:32:53.377Z,29.30
2019-06-20T12:35:23.321Z,29.20
2019-06-20T12:37:53.132Z,29.20
2019-06-20T12:40:23.390Z,29.20
2019-06-20T12:42:53.248Z,29.10
2019-06-20T12:45:23.202Z,29.10
2019-06-20T12:47:53.055Z,29.10
2019-06-20T12:50:23.003Z,29.00
2019-06-20T12:52:52.873Z,28.90
2019-06-20T12:55:22.752Z,28.90
2019-06-20T12:57:52.752Z,28.90
2019-06-20T13:00:23.611Z,28.90
2019-06-20T13:02:53.299Z,28.80
2019-06-20T13:05:23.815Z,28.80
2019-06-20T13:07:53.709Z,28.80
2019-06-20T13:10:23.660Z,28.90
2019-06-20T13:12:53.591Z,28.90
2019-06-20T13:15:23.514Z,29.00
2019-06-20T13:17:53.483Z,28.90
2019-06-20T13:20:23.340Z,28.90
2019-06-20T13:22:53.154Z,28.80
2019-06-20T13:25:23.025Z,28.70
2019-06-20T13:27:52.917Z,28.60
2019-06-20T13:30:22.910Z,28.50
2019-06-20T13:32:52.739Z,28.50
2019-06-20T13:35:22.591Z,28.40
2019-06-20T13:37:52.529Z,28.40
2019-06-20T13:40:22.662Z,28.30
2019-06-20T13:42:54.565Z,28.30
2019-06-20T13:45:25.048Z,28.30
2019-06-20T13:47:55.588Z,28.30
2019-06-20T13:50:26.176Z,28.30
2019-06-20T13:52:56.094Z,28.40
2019-06-20T13:55:25.954Z,28.40
2019-06-20T13:57:55.684Z,28.40
2019-06-20T14:00:27.369Z,28.50
2019-06-20T14:02:57.282Z,28.50
2019-06-20T14:05:27.155Z,28.50
2019-06-20T14:07:57.024Z,28.50
2019-06-20T14:10:27.018Z,28.50
2019-06-20T14:12:56.856Z,28.50
2019-06-20T14:15:26.839Z,28.40
2019-06-20T14:17:56.739Z,28.40
2019-06-20T14:20:26.624Z,28.30
2019-06-20T14:22:56.677Z,28.20
2019-06-20T14:25:26.435Z,28.10
2019-06-20T14:27:56.297Z,28.10
2019-06-20T14:30:26.220Z,28.00
2019-06-20T14:32:56.117Z,28.00
2019-06-20T14:35:26.038Z,27.90
2019-06-20T14:37:55.971Z,27.90
2019-06-20T14:40:25.820Z,27.80
2019-06-20T14:42:55.607Z,27.70
2019-06-20T14:45:25.524Z,27.70
2019-06-20T14:47:55.412Z,27.60
2019-06-20T14:50:25.522Z,27.50
2019-06-20T14:52:55.410Z,27.50
2019-06-20T14:55:25.386Z,27.50
2019-06-20T14:57:55.289Z,27.40
2019-06-20T15:00:26.048Z,27.40
2019-06-20T15:02:58.352Z,27.40
2019-06-20T15:05:27.311Z,27.40
2019-06-20T15:07:57.210Z,27.30
2019-06-20T15:10:27.187Z,27.20
2019-06-20T15:12:57.002Z,27.20
2019-06-20T15:15:26.692Z,27.10
2019-06-20T15:17:58.243Z,27.10
2019-06-20T15:20:27.941Z,27.10
2019-06-20T15:22:57.809Z,27.10
2019-06-20T15:25:27.620Z,27.00
2019-06-20T15:27:57.517Z,27.00
2019-06-20T15:30:27.314Z,26.90
2019-06-20T15:33:07.605Z,26.90
2019-06-20T15:35:28.580Z,26.90
2019-06-20T15:37:58.371Z,26.80
2019-06-20T15:40:28.153Z,26.70
2019-06-20T15:42:58.928Z,26.70
2019-06-20T15:45:29.004Z,26.60
2019-06-20T15:47:58.861Z,26.70
2019-06-20T15:50:28.752Z,26.60
2019-06-20T15:52:58.581Z,26.60
2019-06-20T15:55:28.420Z,26.60
2019-06-20T15:57:58.164Z,26.60
2019-06-20T16:00:28.133Z,26.50
2019-06-20T16:03:09.385Z,26.60
2019-06-20T16:05:29.392Z,26.60
2019-06-20T16:07:59.272Z,26.50
2019-06-20T16:10:30.072Z,26.50
2019-06-20T16:12:59.904Z,26.50
2019-06-20T16:15:29.782Z,26.50
2019-06-20T16:17:59.553Z,26.50
2019-06-20T16:20:29.460Z,26.40
2019-06-20T16:22:59.337Z,26.40
2019-06-20T16:25:29.145Z,26.40
2019-06-20T16:27:59.064Z,26.40
2019-06-20T16:30:29.057Z,26.40
2019-06-20T16:32:58.665Z,26.40
2019-06-20T16:35:28.498Z,26.30
2019-06-20T16:37:58.366Z,26.40
2019-06-20T16:40:31.048Z,26.30
2019-06-20T16:43:00.934Z,26.30
2019-06-20T16:45:30.779Z,26.30
2019-06-20T16:48:00.797Z,26.30
2019-06-20T16:50:30.605Z,26.30
2019-06-20T16:53:01.354Z,26.20
2019-06-20T16:55:31.489Z,26.20
2019-06-20T16:58:01.316Z,26.20
2019-06-20T17:00:31.632Z,26.20
2019-06-20T17:03:01.651Z,26.20
2019-06-20T17:05:31.606Z,26.20
2019-06-20T17:08:01.444Z,26.10
2019-06-20T17:10:31.270Z,26.20
2019-06-20T17:13:01.185Z,26.20
2019-06-20T17:15:31.039Z,26.20
2019-06-20T17:18:00.945Z,26.00
2019-06-20T17:20:30.861Z,25.90
2019-06-20T17:23:00.747Z,25.80
2019-06-20T17:25:30.674Z,25.50
2019-06-20T17:28:00.548Z,25.00
2019-06-20T17:30:30.463Z,24.60
2019-06-20T17:33:00.360Z,24.00
2019-06-20T17:35:30.259Z,23.40
2019-06-20T17:38:00.036Z,23.10
2019-06-20T17:40:30.198Z,22.70
2019-06-20T17:43:00.121Z,22.40
2019-06-20T17:45:30.051Z,22.20
2019-06-20T17:48:00.027Z,22.00
2019-06-20T17:50:29.882Z,21.90
2019-06-20T17:52:59.585Z,21.80
2019-06-20T17:55:29.487Z,21.70
2019-06-20T17:57:59.403Z,21.60
2019-06-20T18:00:29.891Z,21.60
2019-06-20T18:02:59.751Z,21.50
2019-06-20T18:05:29.923Z,21.50
2019-06-20T18:08:14.152Z,21.50
2019-06-20T18:10:31.299Z,21.40
2019-06-20T18:13:01.131Z,21.40
2019-06-20T18:15:33.861Z,21.40
2019-06-20T18:18:02.648Z,21.40
2019-06-20T18:20:32.685Z,21.40
2019-06-20T18:23:02.766Z,21.40
2019-06-20T18:25:32.594Z,21.40
2019-06-20T18:28:02.483Z,21.40
2019-06-20T18:30:35.221Z,21.40
2019-06-20T18:33:05.104Z,21.40
2019-06-20T18:35:35.044Z,21.30
2019-06-20T18:38:04.915Z,21.30
2019-06-20T18:40:34.819Z,21.30
2019-06-20T18:43:04.717Z,21.40
2019-06-20T18:45:34.533Z,21.40
2019-06-20T18:48:04.574Z,21.40
2019-06-20T18:50:34.469Z,21.40
2019-06-20T18:53:04.893Z,21.40
2019-06-20T18:55:34.627Z,21.40
2019-06-20T18:58:04.905Z,21.40
2019-06-20T19:00:35.376Z,21.40
2019-06-20T19:03:05.566Z,21.30
2019-06-20T19:05:35.383Z,21.30
2019-06-20T19:08:05.461Z,21.40
2019-06-20T19:10:35.326Z,21.40
2019-06-20T19:13:05.309Z,21.40
2019-06-20T19:15:35.220Z,21.30
2019-06-20T19:18:05.144Z,21.30
2019-06-20T19:20:35.005Z,21.30
2019-06-20T19:23:04.866Z,21.40
2019-06-20T19:25:35.012Z,21.40
2019-06-20T19:28:04.856Z,21.30
2019-06-20T19:30:37.646Z,21.30
2019-06-20T19:33:07.574Z,21.20
2019-06-20T19:35:37.367Z,21.30
2019-06-20T19:38:07.144Z,21.30
2019-06-20T19:40:39.849Z,21.20
2019-06-20T19:43:09.711Z,21.20
2019-06-20T19:45:39.745Z,21.20
2019-06-20T19:48:09.659Z,21.20
2019-06-20T19:50:39.905Z,21.10
2019-06-20T19:53:10.296Z,21.10
2019-06-20T19:55:40.646Z,21.10
2019-06-20T19:58:10.609Z,21.20
2019-06-20T20:00:41.638Z,21.10
2019-06-20T20:03:11.553Z,21.10
2019-06-20T20:05:41.480Z,21.00
2019-06-20T20:08:11.366Z,21.00
2019-06-20T20:10:44.939Z,21.10
2019-06-20T20:13:15.546Z,21.10
2019-06-20T20:15:46.420Z,21.10
2019-06-20T20:18:17.284Z,21.20
2019-06-20T20:20:48.411Z,21.20
2019-06-20T20:23:18.749Z,21.20
2019-06-20T20:25:48.673Z,21.10
2019-06-20T20:28:18.403Z,21.10
2019-06-20T20:30:48.358Z,21.10
2019-06-20T20:33:18.288Z,21.10
2019-06-20T20:35:48.192Z,21.10
2019-06-20T20:38:18.003Z,21.10
2019-06-20T20:40:47.846Z,21.10
2019-06-20T20:43:17.836Z,21.00
2019-06-20T20:45:47.654Z,21.00
2019-06-20T20:48:17.525Z,21.00
2019-06-20T20:50:47.486Z,20.90
2019-06-20T20:53:18.399Z,20.90
2019-06-20T20:55:48.207Z,20.80
2019-06-20T20:58:18.016Z,20.80
2019-06-20T21:00:51.136Z,20.80
2019-06-20T21:03:20.732Z,20.70
2019-06-20T21:05:51.669Z,20.70
2019-06-20T21:08:22.952Z,20.70
2019-06-20T21:10:52.689Z,20.70
2019-06-20T21:13:22.471Z,20.70
2019-06-20T21:15:52.339Z,20.70
2019-06-20T21:18:22.044Z,20.70
2019-06-20T21:20:52.003Z,20.60
2019-06-20T21:23:21.941Z,20.60
2019-06-20T21:25:51.857Z,20.60
2019-06-20T21:28:21.714Z,20.50
2019-06-20T21:30:52.623Z,20.50
2019-06-20T21:33:23.596Z,20.50
2019-06-20T21:36:07.328Z,20.60
2019-06-20T21:38:25.132Z,20.60
2019-06-20T21:40:54.912Z,20.60
2019-06-20T21:43:24.786Z,20.60
2019-06-20T21:45:54.659Z,20.60
2019-06-20T21:48:24.580Z,20.60
2019-06-20T21:50:54.369Z,20.60
2019-06-20T21:53:24.313Z,20.70
2019-06-20T21:55:54.081Z,20.70
2019-06-20T21:58:23.952Z,20.60
2019-06-20T22:00:56.697Z,20.60
2019-06-20T22:03:26.974Z,20.60
2019-06-20T22:05:57.953Z,20.60
2019-06-20T22:08:27.874Z,20.60
2019-06-20T22:10:57.828Z,20.70
2019-06-20T22:13:27.761Z,20.60
2019-06-20T22:15:57.663Z,20.60
2019-06-20T22:18:27.395Z,20.70
2019-06-20T22:20:57.106Z,20.70
2019-06-20T22:23:27.121Z,20.70
2019-06-20T22:25:56.966Z,20.70
2019-06-20T22:28:26.719Z,20.70
2019-06-20T22:30:56.976Z,20.70
2019-06-20T22:33:26.816Z,20.60
2019-06-20T22:35:56.690Z,20.60
2019-06-20T22:38:26.509Z,20.60
2019-06-20T22:40:56.301Z,20.50
2019-06-20T22:43:26.014Z,20.50
2019-06-20T22:45:55.951Z,20.50
2019-06-20T22:48:25.639Z,20.50
2019-06-20T22:50:55.520Z,20.50
2019-06-20T22:53:25.445Z,20.50
2019-06-20T22:55:55.036Z,20.50
2019-06-20T22:58:24.793Z,20.50
2019-06-20T23:00:54.692Z,20.50
2019-06-20T23:03:25.580Z,20.50
2019-06-20T23:05:55.408Z,20.50
2019-06-20T23:08:25.228Z,20.50
2019-06-20T23:10:56.138Z,20.50
2019-06-20T23:13:25.980Z,20.40
2019-06-20T23:15:55.819Z,20.50
2019-06-20T23:18:25.560Z,20.50
2019-06-20T23:21:04.706Z,20.40
2019-06-20T23:23:26.904Z,20.40
2019-06-20T23:25:58.373Z,20.40
2019-06-20T23:28:28.116Z,20.40
2019-06-20T23:30:57.911Z,20.40
2019-06-20T23:33:27.597Z,20.40
2019-06-20T23:35:57.392Z,20.40
2019-06-20T23:38:27.225Z,20.40
2019-06-20T23:40:56.884Z,20.40
2019-06-20T23:43:26.652Z,20.40
2019-06-20T23:45:56.336Z,20.40
2019-06-20T23:48:26.110Z,20.40
2019-06-20T23:50:55.957Z,20.40
2019-06-20T23:53:27.383Z,20.40
2019-06-20T23:55:58.184Z,20.30
2019-06-20T23:58:27.960Z,20.30
